首页
METAR-TAF:

METAR-TAF

机场 :

太原武宿国际机场

太原, 中华人民共和国

纬度: 37-47N, 经度: 112-33E, 海拔: 779米

当前天气观测

该预报发布于29分钟前的02:00 UTC
风速8节,风向东北,在之间变化
温度 23°C
湿度 69%
气压 1011 hPa
能见度10公里或以上
多云层高于3300英尺

METAR: ZBYN 190200Z 04004MPS 010V080 9999 BKN033 23/17 Q1011 NOSIG

时间: 10:29 (02:29 UTC)

预报

该预报发布于7小时和22分钟前的19:07 UTC
预报有效从19日的 00点(UTC)到 19日的 24点(UTC)
风速8节,风向
能見度: 6000
短暂存在
从 19日的 00点(UTC)到 19日的 04点(UTC)
能見度: 2500
少量云层高于3000英尺, 积雨云.
散云层高于4000英尺
小阵雨, 轻雾

TAF: ZBYN 181907Z 1900/1924 09004MPS 6000 NSC TX29/1907Z TN19/1921Z TEMPO 1900/1904 2500 -SHRA BR FEW030CB SCT040

超过4000个机场的气象观测和天气预报(METAR&TAF报告)。

可查询的气象台以黄色和红色小点在地图上表示。

将鼠标移到小点上方,可查看气象台名称。

然后点击查看天气观测和预报。

如需切换地图:点击带黑十字的绿色按钮放大地图;点击带横线的绿色按钮缩小地图;或者点击绿色箭头查看邻近地区的地图。


METAR-TAF: